Saltar para o conteúdo principal

Seia/Senhora do Espinheiro

ID 1259204 · 40.4128, -7.6734 mapa

Última leitura · 2026-05-09 18:00 (Europe/Lisbon)

Temperatura
9.7 °C
Humidade
86 %
Pressão
1,006.8 hPa
Precipitação
0.4 mm
Radiação
Velocidade do vento
9.4 km/h
Direcção do vento
SW · Sudoeste

Histórico de 24 horas

Hora (Europe/Lisbon) Temperatura Humidade Pressão Chuva Vento Direcção
2026-05-09 18:00 9.7 °C 86 % 1,006.8 0.4 mm 9.4 km/h SW
2026-05-09 17:00 10.7 °C 82 % 1,005.6 0.0 mm 19.8 km/h S
2026-05-09 16:00 10.4 °C 85 % 1,005.1 19.8 km/h S
2026-05-09 15:00 10.8 °C 80 % 1,004.5 19.4 km/h S
2026-05-09 14:00 10.7 °C 74 % 1,004.4 0.0 mm 15.8 km/h S
2026-05-09 13:00 11.1 °C 78 % 1,004.2 0.1 mm 15.1 km/h W
2026-05-09 12:00 10.7 °C 81 % 1,004.6 0.3 mm 13.3 km/h S
2026-05-09 11:00 9.0 °C 82 % 1,004.6 1.3 mm 25.6 km/h S
2026-05-09 10:00 9.6 °C 80 % 1,004.8 0.5 mm 10.1 km/h W
2026-05-09 09:00 9.6 °C 76 % 1,005.1 0.0 mm 13.3 km/h S
2026-05-09 08:00 9.0 °C 81 % 1,005.1 0.0 mm 13.0 km/h S
2026-05-09 07:00 8.9 °C 82 % 1,005.4 0.2 mm 13.7 km/h S
2026-05-09 06:00 9.3 °C 76 % 1,005.6 0.0 mm 15.1 km/h S
2026-05-09 05:00 8.9 °C 80 % 1,005.6 0.0 mm 18.0 km/h S
2026-05-09 04:00 8.7 °C 81 % 1,006.0 0.0 mm 31.3 km/h S
2026-05-09 03:00 8.7 °C 78 % 1,006.8 0.9 mm 13.3 km/h SW
2026-05-09 02:00 10.1 °C 70 % 1,006.1 0.2 mm 36.7 km/h S
2026-05-09 01:00 10.4 °C 74 % 1,007.5 0.0 mm 22.7 km/h S
2026-05-09 00:00 10.6 °C 70 % 1,007.7 0.2 mm 15.1 km/h S
2026-05-08 23:00 10.5 °C 68 % 1,007.8 0.0 mm 7.6 km/h SE
2026-05-08 22:00 11.1 °C 63 % 1,007.6 0.0 mm 5.8 km/h S
2026-05-08 21:00 10.9 °C 65 % 1,007.8 0.0 mm 4.3 km/h SE
2026-05-08 20:00 11.8 °C 63 % 1,007.8 0.0 mm 3.2 km/h S
2026-05-08 19:00 12.1 °C 62 % 1,008.0 0.0 mm 2.5 km/h SE